Time;durP1;ratioP1;P1;durP2;ratioP2;P2;SDS_P1;SDS_P2;PMS_P1;PMS_P2;Temp;Humidity;BMP_temperature;BMP_pressure;BME280_temperature;BME280_humidity;BME280_pressure;Samples;Min_cycle;Max_cycle;Signal;HPM_P1;HPM_P2
2022/01/17 00:00:26;;;;;;;;;;;;;;;2.48;nan;102063.03;5014388;28;19921;-85
2022/01/17 00:02:52;;;;;;;;;;;;;;;2.49;nan;102070.81;4996669;28;19921;-85
2022/01/17 00:05:17;;;;;;;;;;;;;;;2.36;nan;102073.97;5001602;28;20392;-84
2022/01/17 00:07:43;;;;;;;;;;;;;;;2.32;nan;102083.69;5016133;28;19940;-85
2022/01/17 00:10:08;;;;;;;;;;;;;;;2.30;nan;102088.97;5012919;28;20436;-85
2022/01/17 00:12:36;;;;;;;;;;;;;;;2.26;nan;102078.72;4999733;28;20012;-85
2022/01/17 00:15:09;;;;;;;;;;;;;;;2.29;nan;102084.69;5022336;28;19933;-85
2022/01/17 00:17:35;;;;;;;;;;;;;;;2.31;nan;102085.47;4995395;28;20008;-84
2022/01/17 00:20:10;;;;;;;;;;;;;;;2.29;nan;102078.59;5014768;28;19975;-84
2022/01/17 00:22:35;;;;;;;;;;;;;;;2.26;nan;102076.09;4995352;28;19921;-85
2022/01/17 00:25:00;;;;;;;;;;;;;;;2.22;nan;102074.53;5000961;28;19921;-85
2022/01/17 00:27:25;;;;;;;;;;;;;;;2.26;nan;102076.09;4998025;28;20391;-83
2022/01/17 00:29:51;;;;;;;;;;;;;;;2.22;nan;102078.00;5013654;28;19918;-85
2022/01/17 00:32:16;;;;;;;;;;;;;;;2.20;nan;102084.19;4996605;28;19926;-83
2022/01/17 00:34:41;;;;;;;;;;;;;;;2.22;nan;102078.00;5002421;28;19925;-84
2022/01/17 00:37:06;;;;;;;;;;;;;;;2.13;nan;102073.97;5006063;28;19917;-85
2022/01/17 00:39:31;;;;;;;;;;;;;;;2.11;nan;102073.16;5016346;28;19925;-84
2022/01/17 00:41:57;;;;;;;;;;;;;;;2.10;nan;102066.25;5037973;28;19917;-84
2022/01/17 00:44:23;;;;;;;;;;;;;;;2.13;nan;102071.34;5007919;28;19927;-84
2022/01/17 00:46:49;;;;;;;;;;;;;;;2.10;nan;102071.50;5030641;28;19972;-85
2022/01/17 00:49:14;;;;;;;;;;;;;;;2.18;nan;102065.13;5000749;28;19936;-84
2022/01/17 00:51:40;;;;;;;;;;;;;;;2.16;nan;102069.53;5018872;28;19922;-85
2022/01/17 00:54:05;;;;;;;;;;;;;;;2.19;nan;102062.44;5002766;28;20012;-87
2022/01/17 00:56:30;;;;;;;;;;;;;;;2.20;nan;102071.13;4998566;28;19921;-84
2022/01/17 00:58:57;;;;;;;;;;;;;;;2.16;nan;102074.75;5010418;28;21615;-84
2022/01/17 01:01:22;;;;;;;;;;;;;;;2.07;nan;102075.97;4996722;28;19960;-84
2022/01/17 01:03:48;;;;;;;;;;;;;;;2.11;nan;102077.56;4992845;28;20334;-84
2022/01/17 01:06:13;;;;;;;;;;;;;;;2.17;nan;102076.44;4996748;28;19921;-84
2022/01/17 01:08:38;;;;;;;;;;;;;;;2.16;nan;102077.38;4997366;28;20379;-84
2022/01/17 01:11:03;;;;;;;;;;;;;;;2.13;nan;102068.75;5009310;28;20435;-84
2022/01/17 01:13:30;;;;;;;;;;;;;;;2.17;nan;102071.22;4987217;28;19929;-85
2022/01/17 01:29:07;;;;;;;;;;;;;;;2.22;nan;102080.59;5034682;28;19974;-85
2022/01/17 01:34:10;;;;;;;;;;;;;;;2.25;nan;102075.25;5048694;28;20386;-84
2022/01/17 01:36:36;;;;;;;;;;;;;;;2.29;nan;102073.38;5047059;28;19921;-85
2022/01/17 01:39:04;;;;;;;;;;;;;;;2.25;nan;102077.03;5037929;28;19921;-85
2022/01/17 01:41:29;;;;;;;;;;;;;;;2.24;nan;102080.53;5026478;28;19918;-85
2022/01/17 01:43:55;;;;;;;;;;;;;;;2.19;nan;102078.09;5006932;28;20522;-85
2022/01/17 01:46:20;;;;;;;;;;;;;;;2.21;nan;102080.66;5022756;28;20409;-85
2022/01/17 01:48:46;;;;;;;;;;;;;;;2.20;nan;102087.63;5030528;28;19918;-85
2022/01/17 01:51:11;;;;;;;;;;;;;;;2.10;nan;102094.13;4996637;28;19969;-85
2022/01/17 01:53:36;;;;;;;;;;;;;;;2.15;nan;102105.22;5015002;28;20391;-85
2022/01/17 01:56:02;;;;;;;;;;;;;;;2.19;nan;102117.22;5023304;28;19926;-85
2022/01/17 01:58:27;;;;;;;;;;;;;;;2.19;nan;102119.00;5029900;28;20000;-86
2022/01/17 02:00:53;;;;;;;;;;;;;;;2.18;nan;102120.78;4996490;28;19922;-86
2022/01/17 02:03:18;;;;;;;;;;;;;;;2.18;nan;102118.16;4992810;28;19921;-86
2022/01/17 02:05:44;;;;;;;;;;;;;;;2.19;nan;102119.00;4990101;28;19929;-84
2022/01/17 02:08:13;;;;;;;;;;;;;;;2.16;nan;102121.72;4999441;28;20187;-84
2022/01/17 02:10:38;;;;;;;;;;;;;;;2.12;nan;102119.25;5008020;28;19922;-86
2022/01/17 02:13:03;;;;;;;;;;;;;;;2.17;nan;102123.44;4998384;28;19924;-85
2022/01/17 02:15:29;;;;;;;;;;;;;;;2.16;nan;102112.13;4998391;28;19975;-84
2022/01/17 02:17:55;;;;;;;;;;;;;;;2.20;nan;102125.94;5025530;28;19918;-85
2022/01/17 02:20:23;;;;;;;;;;;;;;;2.17;nan;102119.06;4996417;28;19929;-85
2022/01/17 02:22:52;;;;;;;;;;;;;;;2.23;nan;102121.44;5018217;28;19928;-84
2022/01/17 02:25:17;;;;;;;;;;;;;;;2.13;nan;102115.72;5022193;28;20291;-84
2022/01/17 02:27:43;;;;;;;;;;;;;;;2.10;nan;102113.25;5030898;28;19917;-84
2022/01/17 02:30:08;;;;;;;;;;;;;;;2.10;nan;102122.84;5031328;28;19936;-85
2022/01/17 02:32:34;;;;;;;;;;;;;;;2.12;nan;102115.78;5033074;28;20501;-84
2022/01/17 02:35:14;;;;;;;;;;;;;;;2.19;nan;102121.59;5033088;28;19932;-84
2022/01/17 02:37:39;;;;;;;;;;;;;;;2.16;nan;102114.75;5018236;28;20009;-84
2022/01/17 02:40:05;;;;;;;;;;;;;;;2.16;nan;102106.06;5025549;28;20394;-84
2022/01/17 02:42:30;;;;;;;;;;;;;;;2.18;nan;102099.03;5019659;28;19929;-84
2022/01/17 02:45:05;;;;;;;;;;;;;;;2.17;nan;102100.81;5020365;28;20413;-84
2022/01/17 02:47:30;;;;;;;;;;;;;;;2.18;nan;102099.03;5026779;28;19964;-84
2022/01/17 02:49:56;;;;;;;;;;;;;;;2.20;nan;102098.06;5031081;28;20267;-84
2022/01/17 02:52:23;;;;;;;;;;;;;;;2.15;nan;102086.97;5034470;28;20024;-85
2022/01/17 02:54:48;;;;;;;;;;;;;;;2.19;nan;102075.47;5036229;28;19936;-83
2022/01/17 02:57:13;;;;;;;;;;;;;;;2.16;nan;102070.38;5036872;28;19921;-84
2022/01/17 02:59:38;;;;;;;;;;;;;;;2.17;nan;102064.28;5032504;28;19984;-84
2022/01/17 03:02:04;;;;;;;;;;;;;;;2.15;nan;102060.88;5030715;28;19940;-84
2022/01/17 03:04:30;;;;;;;;;;;;;;;2.17;nan;102066.00;5017464;28;20333;-83
2022/01/17 03:06:56;;;;;;;;;;;;;;;2.15;nan;102073.91;5017356;28;20053;-84
2022/01/17 03:09:23;;;;;;;;;;;;;;;2.09;nan;102081.97;5027648;28;19976;-85
2022/01/17 03:11:48;;;;;;;;;;;;;;;2.16;nan;102093.88;5041691;28;19931;-84
2022/01/17 03:14:13;;;;;;;;;;;;;;;2.14;nan;102098.28;5040299;28;20041;-85
2022/01/17 03:16:45;;;;;;;;;;;;;;;2.16;nan;102096.47;5029073;28;19925;-84
2022/01/17 03:19:11;;;;;;;;;;;;;;;2.12;nan;102093.16;5031284;28;19925;-85
2022/01/17 03:21:36;;;;;;;;;;;;;;;2.10;nan;102096.75;5022610;28;19982;-85
2022/01/17 03:24:01;;;;;;;;;;;;;;;2.14;nan;102087.84;5018463;28;20371;-87
2022/01/17 03:26:29;;;;;;;;;;;;;;;2.06;nan;102089.94;5016450;28;20142;-85
2022/01/17 03:28:55;;;;;;;;;;;;;;;2.09;nan;102097.63;5009075;28;20293;-85
2022/01/17 03:31:20;;;;;;;;;;;;;;;2.06;nan;102089.94;4988402;28;19924;-85
2022/01/17 03:33:45;;;;;;;;;;;;;;;2.13;nan;102094.00;5010325;28;19932;-85
2022/01/17 03:36:11;;;;;;;;;;;;;;;2.11;nan;102088.00;5012405;28;19929;-85
2022/01/17 03:38:37;;;;;;;;;;;;;;;2.15;nan;102088.72;5016606;28;19948;-86
2022/01/17 03:41:04;;;;;;;;;;;;;;;2.15;nan;102084.34;4998300;28;20358;-85
2022/01/17 03:43:29;;;;;;;;;;;;;;;2.18;nan;102086.00;4999503;28;19929;-85
2022/01/17 03:45:57;;;;;;;;;;;;;;;2.16;nan;102093.88;5012952;28;19922;-84
2022/01/17 03:48:23;;;;;;;;;;;;;;;2.18;nan;102070.34;5016493;28;19926;-84
2022/01/17 03:50:48;;;;;;;;;;;;;;;2.16;nan;102075.59;5019617;28;19921;-84
2022/01/17 03:53:13;;;;;;;;;;;;;;;2.14;nan;102072.19;5019081;28;19951;-85
2022/01/17 03:55:39;;;;;;;;;;;;;;;2.21;nan;102073.66;5024932;28;20311;-85
2022/01/17 03:58:05;;;;;;;;;;;;;;;2.21;nan;102067.59;4998606;28;19928;-84
2022/01/17 04:00:33;;;;;;;;;;;;;;;2.11;nan;102070.56;5028843;28;19922;-85
2022/01/17 04:02:59;;;;;;;;;;;;;;;2.20;nan;102079.81;5026029;28;20370;-84
2022/01/17 04:05:24;;;;;;;;;;;;;;;2.13;nan;102083.56;5036153;28;19921;-84
2022/01/17 04:07:49;;;;;;;;;;;;;;;2.09;nan;102093.25;5036543;28;19949;-84
2022/01/17 04:10:15;;;;;;;;;;;;;;;2.12;nan;102089.66;5025992;28;19992;-86
2022/01/17 04:12:41;;;;;;;;;;;;;;;2.05;nan;102088.22;5033064;28;19922;-85
2022/01/17 04:15:07;;;;;;;;;;;;;;;2.04;nan;102096.97;5034854;28;19925;-85
2022/01/17 04:17:32;;;;;;;;;;;;;;;2.04;nan;102094.34;5038133;28;19922;-85
2022/01/17 04:20:04;;;;;;;;;;;;;;;2.04;nan;102081.31;5041793;28;19935;-85
2022/01/17 04:22:33;;;;;;;;;;;;;;;2.04;nan;102076.94;5046879;28;19963;-85
2022/01/17 04:24:58;;;;;;;;;;;;;;;1.95;nan;102066.84;5041902;28;19971;-84
2022/01/17 04:27:24;;;;;;;;;;;;;;;2.08;nan;102077.69;5024346;28;19917;-84
2022/01/17 04:29:49;;;;;;;;;;;;;;;2.08;nan;102081.13;5034097;28;20011;-84
2022/01/17 04:32:14;;;;;;;;;;;;;;;2.00;nan;102079.72;5033788;28;19921;-85
2022/01/17 04:34:40;;;;;;;;;;;;;;;2.02;nan;102081.34;5035834;28;19929;-84
2022/01/17 04:37:07;;;;;;;;;;;;;;;2.09;nan;102089.78;5034049;28;20409;-84
2022/01/17 04:39:32;;;;;;;;;;;;;;;2.06;nan;102100.34;5034986;28;19929;-85
2022/01/17 04:41:57;;;;;;;;;;;;;;;2.05;nan;102104.75;5034241;28;19921;-84
2022/01/17 04:47:06;;;;;;;;;;;;;;;2.01;nan;102086.66;5033342;28;19932;-83
2022/01/17 04:49:32;;;;;;;;;;;;;;;2.02;nan;102089.19;5024644;28;19925;-84
2022/01/17 04:51:57;;;;;;;;;;;;;;;2.01;nan;102087.50;5033027;28;19920;-84
2022/01/17 04:54:40;;;;;;;;;;;;;;;2.09;nan;102095.03;5033108;28;19925;-85
2022/01/17 04:57:05;;;;;;;;;;;;;;;2.10;nan;102096.75;5035541;28;20163;-85
2022/01/17 04:59:31;;;;;;;;;;;;;;;2.05;nan;102094.31;5031574;28;19927;-86
2022/01/17 05:01:56;;;;;;;;;;;;;;;2.09;nan;102089.78;5036182;28;20390;-84
2022/01/17 05:04:21;;;;;;;;;;;;;;;2.05;nan;102088.22;5025626;28;19929;-85
2022/01/17 05:06:46;;;;;;;;;;;;;;;2.10;nan;102089.75;5034932;28;19917;-85
2022/01/17 05:09:12;;;;;;;;;;;;;;;2.09;nan;102085.44;5024355;28;20299;-85
2022/01/17 05:11:37;;;;;;;;;;;;;;;2.10;nan;102087.13;5028554;28;19925;-86
2022/01/17 05:14:02;;;;;;;;;;;;;;;2.05;nan;102085.59;5028568;28;19949;-85
2022/01/17 05:16:35;;;;;;;;;;;;;;;1.98;nan;102086.75;5031108;28;19947;-85
2022/01/17 05:21:44;;;;;;;;;;;;;;;2.10;nan;102078.47;5042659;28;20360;-84
2022/01/17 05:24:09;;;;;;;;;;;;;;;2.02;nan;102080.50;5027385;28;19921;-85
2022/01/17 05:26:34;;;;;;;;;;;;;;;2.03;nan;102063.97;5022319;28;19917;-85
2022/01/17 05:29:00;;;;;;;;;;;;;;;2.03;nan;102062.19;5020833;28;19922;-85
2022/01/17 05:31:25;;;;;;;;;;;;;;;2.05;nan;102063.00;5021787;28;19924;-85
2022/01/17 05:33:50;;;;;;;;;;;;;;;2.05;nan;102081.25;5019141;28;19922;-84
2022/01/17 05:36:15;;;;;;;;;;;;;;;2.02;nan;102083.13;5028818;28;19929;-85
2022/01/17 05:38:41;;;;;;;;;;;;;;;2.03;nan;102092.66;5012447;28;19921;-85
2022/01/17 05:41:06;;;;;;;;;;;;;;;1.95;nan;102100.75;5042578;28;19922;-85
2022/01/17 05:43:32;;;;;;;;;;;;;;;2.05;nan;102103.84;5039288;28;19929;-85
2022/01/17 05:45:57;;;;;;;;;;;;;;;2.02;nan;102107.44;5032166;28;19959;-85
2022/01/17 05:48:22;;;;;;;;;;;;;;;2.02;nan;102114.41;5027036;28;19944;-85
2022/01/17 05:50:48;;;;;;;;;;;;;;;2.05;nan;102122.13;5036732;28;19936;-84
2022/01/17 05:53:14;;;;;;;;;;;;;;;2.02;nan;102111.81;5003053;28;19952;-84
2022/01/17 05:55:40;;;;;;;;;;;;;;;2.05;nan;102120.41;5022214;28;19961;-84
2022/01/17 05:58:05;;;;;;;;;;;;;;;1.99;nan;102125.81;5012552;28;19972;-85
2022/01/17 06:00:30;;;;;;;;;;;;;;;2.05;nan;102115.16;5002566;28;19985;-85
2022/01/17 06:02:56;;;;;;;;;;;;;;;2.07;nan;102118.56;4996894;28;20312;-85
2022/01/17 06:05:21;;;;;;;;;;;;;;;2.03;nan;102116.16;5014845;28;19925;-84
2022/01/17 06:07:46;;;;;;;;;;;;;;;2.00;nan;102100.56;5027850;28;19918;-84
2022/01/17 06:10:11;;;;;;;;;;;;;;;2.03;nan;102105.72;5003940;28;19925;-84
2022/01/17 06:12:36;;;;;;;;;;;;;;;2.04;nan;102107.38;5028599;28;19956;-85
2022/01/17 06:15:03;;;;;;;;;;;;;;;2.05;nan;102109.09;5016908;28;19953;-84
2022/01/17 06:17:28;;;;;;;;;;;;;;;2.06;nan;102116.03;5026910;28;20306;-85
2022/01/17 06:19:53;;;;;;;;;;;;;;;2.03;nan;102137.00;5038442;28;19945;-86
2022/01/17 06:22:18;;;;;;;;;;;;;;;2.02;nan;102145.72;5036146;28;19979;-84
2022/01/17 06:24:44;;;;;;;;;;;;;;;2.02;nan;102146.56;5025605;28;19928;-84
2022/01/17 06:27:09;;;;;;;;;;;;;;;2.06;nan;102121.22;5030185;28;20000;-85
2022/01/17 06:29:34;;;;;;;;;;;;;;;2.04;nan;102108.22;5032977;28;19975;-85
2022/01/17 06:31:59;;;;;;;;;;;;;;;1.99;nan;102120.59;5030891;28;19917;-85
2022/01/17 06:34:25;;;;;;;;;;;;;;;1.98;nan;102115.44;5033187;28;19975;-85
2022/01/17 06:36:50;;;;;;;;;;;;;;;1.91;nan;102118.28;5028160;28;19932;-84
2022/01/17 06:39:15;;;;;;;;;;;;;;;1.99;nan;102123.22;5030872;28;19925;-83
2022/01/17 06:41:40;;;;;;;;;;;;;;;1.98;nan;102125.88;5023337;28;19943;-86
2022/01/17 06:44:07;;;;;;;;;;;;;;;1.97;nan;102135.47;5019490;28;19926;-84
2022/01/17 06:46:32;;;;;;;;;;;;;;;1.94;nan;102126.91;5025582;28;19947;-86
2022/01/17 06:48:58;;;;;;;;;;;;;;;2.04;nan;102110.84;5025204;28;19917;-84
2022/01/17 06:51:23;;;;;;;;;;;;;;;2.01;nan;102117.94;5022704;28;19951;-84
2022/01/17 06:53:50;;;;;;;;;;;;;;;1.99;nan;102106.72;5031051;28;19921;-84
2022/01/17 06:56:15;;;;;;;;;;;;;;;1.99;nan;102119.75;5037398;28;19948;-85
2022/01/17 06:58:42;;;;;;;;;;;;;;;2.01;nan;102147.50;5038131;28;19917;-84
2022/01/17 07:01:08;;;;;;;;;;;;;;;2.01;nan;102146.66;5032041;28;19918;-85
2022/01/17 07:03:33;;;;;;;;;;;;;;;2.00;nan;102142.31;5034425;28;19917;-84
2022/01/17 07:05:58;;;;;;;;;;;;;;;2.00;nan;102155.38;5035656;28;19917;-84
2022/01/17 07:08:24;;;;;;;;;;;;;;;1.99;nan;102164.97;5036001;28;19967;-84
2022/01/17 07:10:50;;;;;;;;;;;;;;;2.03;nan;102181.38;5020476;28;20635;-83
2022/01/17 07:13:15;;;;;;;;;;;;;;;2.08;nan;102190.72;5028741;28;19944;-83
2022/01/17 07:15:40;;;;;;;;;;;;;;;2.06;nan;102195.13;5020033;28;19921;-85
2022/01/17 07:18:06;;;;;;;;;;;;;;;2.07;nan;102207.28;5036446;28;20004;-83
2022/01/17 07:20:32;;;;;;;;;;;;;;;2.10;nan;102199.34;5026901;28;19992;-83
2022/01/17 07:22:57;;;;;;;;;;;;;;;2.10;nan;102222.84;5016602;28;20233;-85
2022/01/17 07:25:22;;;;;;;;;;;;;;;2.09;nan;102222.88;5014718;28;19925;-84
2022/01/17 07:27:47;;;;;;;;;;;;;;;2.11;nan;102202.81;5033801;28;19917;-84
2022/01/17 07:30:13;;;;;;;;;;;;;;;2.03;nan;102194.41;5026543;28;19918;-84
2022/01/17 07:32:38;;;;;;;;;;;;;;;2.05;nan;102203.00;5031474;28;20137;-84
2022/01/17 07:35:04;;;;;;;;;;;;;;;2.09;nan;102207.22;5027941;28;19921;-84
2022/01/17 07:37:29;;;;;;;;;;;;;;;2.09;nan;102202.00;5016719;28;19917;-84
2022/01/17 07:39:54;;;;;;;;;;;;;;;2.08;nan;102193.31;5022054;28;19917;-84
2022/01/17 07:42:20;;;;;;;;;;;;;;;2.07;nan;102196.84;5021181;28;19917;-83
2022/01/17 07:44:52;;;;;;;;;;;;;;;2.06;nan;102204.72;4997367;28;19924;-84
2022/01/17 07:47:24;;;;;;;;;;;;;;;2.06;nan;102215.16;4988896;28;20017;-83
2022/01/17 07:49:50;;;;;;;;;;;;;;;2.08;nan;102221.19;4992556;28;20288;-84
2022/01/17 07:52:15;;;;;;;;;;;;;;;2.10;nan;102217.63;5001523;28;19923;-85
2022/01/17 07:54:43;;;;;;;;;;;;;;;2.06;nan;102213.41;4988264;28;19922;-84
2022/01/17 07:57:09;;;;;;;;;;;;;;;2.11;nan;102208.88;4999581;28;19925;-85
2022/01/17 07:59:34;;;;;;;;;;;;;;;2.13;nan;102220.09;4976978;28;19922;-84
2022/01/17 08:02:00;;;;;;;;;;;;;;;2.09;nan;102212.44;5007030;28;20012;-84
2022/01/17 08:04:26;;;;;;;;;;;;;;;2.10;nan;102216.78;5005579;28;19925;-85
2022/01/17 08:06:51;;;;;;;;;;;;;;;2.08;nan;102210.75;4995275;28;19918;-85
2022/01/17 08:09:21;;;;;;;;;;;;;;;2.16;nan;102210.47;4995952;28;19921;-83
2022/01/17 08:11:49;;;;;;;;;;;;;;;2.13;nan;102217.50;4996613;28;19928;-85
2022/01/17 08:14:14;;;;;;;;;;;;;;;2.12;nan;102221.03;4996051;28;19917;-83
2022/01/17 08:16:39;;;;;;;;;;;;;;;2.18;nan;102227.78;5014233;28;19917;-86
2022/01/17 08:19:05;;;;;;;;;;;;;;;2.17;nan;102226.06;5006018;28;20105;-85
2022/01/17 08:21:30;;;;;;;;;;;;;;;2.21;nan;102235.47;4998816;28;20008;-86
2022/01/17 08:23:55;;;;;;;;;;;;;;;2.23;nan;102227.59;5013652;28;20449;-85
2022/01/17 08:26:21;;;;;;;;;;;;;;;2.23;nan;102245.88;5013412;28;20020;-84
2022/01/17 08:28:46;;;;;;;;;;;;;;;2.21;nan;102252.91;5014462;28;20299;-85
2022/01/17 08:31:11;;;;;;;;;;;;;;;2.17;nan;102244.34;4996516;28;19949;-84
2022/01/17 08:33:37;;;;;;;;;;;;;;;2.20;nan;102239.00;4996830;28;19945;-84
2022/01/17 08:36:02;;;;;;;;;;;;;;;2.24;nan;102232.78;5013128;28;19948;-83
2022/01/17 08:38:29;;;;;;;;;;;;;;;2.27;nan;102235.25;4997955;28;19917;-85
2022/01/17 08:40:58;;;;;;;;;;;;;;;2.22;nan;102225.91;5010755;28;19918;-83
2022/01/17 08:43:23;;;;;;;;;;;;;;;2.16;nan;102231.34;4979317;28;19925;-85
2022/01/17 08:45:49;;;;;;;;;;;;;;;2.27;nan;102235.25;4977133;28;20322;-85
2022/01/17 08:48:14;;;;;;;;;;;;;;;2.23;nan;102223.22;4994238;28;19941;-84
2022/01/17 08:50:41;;;;;;;;;;;;;;;2.28;nan;102233.50;4981511;28;19921;-83
2022/01/17 08:53:10;;;;;;;;;;;;;;;2.23;nan;102230.22;4995996;28;19917;-83
2022/01/17 08:55:35;;;;;;;;;;;;;;;2.29;nan;102227.38;5013300;28;19928;-85
2022/01/17 08:58:01;;;;;;;;;;;;;;;2.30;nan;102229.06;4996040;28;20284;-84
2022/01/17 09:00:26;;;;;;;;;;;;;;;2.38;nan;102236.63;4996048;28;19918;-85
2022/01/17 09:02:51;;;;;;;;;;;;;;;2.34;nan;102236.75;5013585;28;20012;-84
2022/01/17 09:05:17;;;;;;;;;;;;;;;2.38;nan;102245.28;5013800;28;19917;-83
2022/01/17 09:07:42;;;;;;;;;;;;;;;2.41;nan;102247.81;4981785;28;19922;-85
2022/01/17 09:10:07;;;;;;;;;;;;;;;2.54;nan;102249.03;4976010;28;20004;-83
2022/01/17 09:12:32;;;;;;;;;;;;;;;2.49;nan;102247.53;5012991;28;19917;-84
2022/01/17 09:14:59;;;;;;;;;;;;;;;2.59;nan;102241.03;5000272;28;19921;-84
2022/01/17 09:17:24;;;;;;;;;;;;;;;2.56;nan;102241.16;5011689;28;20339;-86
2022/01/17 09:19:50;;;;;;;;;;;;;;;2.66;nan;102237.28;5012797;28;20376;-84
2022/01/17 09:22:15;;;;;;;;;;;;;;;2.67;nan;102227.69;5013219;28;20392;-84
2022/01/17 09:24:41;;;;;;;;;;;;;;;2.73;nan;102224.84;5013131;28;20000;-84
2022/01/17 09:27:06;;;;;;;;;;;;;;;2.80;nan;102228.91;5012231;28;19925;-83
2022/01/17 09:29:32;;;;;;;;;;;;;;;2.84;nan;102235.75;5012542;28;20346;-84
2022/01/17 09:31:57;;;;;;;;;;;;;;;2.78;nan;102243.81;5013482;28;19964;-84
2022/01/17 09:34:23;;;;;;;;;;;;;;;2.76;nan;102253.44;5011639;28;19926;-86
2022/01/17 09:36:48;;;;;;;;;;;;;;;2.86;nan;102260.03;5012559;28;19917;-83
2022/01/17 09:39:14;;;;;;;;;;;;;;;2.86;nan;102260.03;5012387;28;19925;-83
2022/01/17 09:41:39;;;;;;;;;;;;;;;2.97;nan;102275.28;5012108;28;19925;-85
2022/01/17 09:44:05;;;;;;;;;;;;;;;2.99;nan;102286.53;5011714;28;19917;-83
2022/01/17 09:46:35;;;;;;;;;;;;;;;3.05;nan;102299.38;5013439;28;19918;-84
2022/01/17 09:49:14;;;;;;;;;;;;;;;3.10;nan;102315.72;5030367;28;19953;-84
2022/01/17 09:54:24;;;;;;;;;;;;;;;3.14;nan;102309.44;5034544;28;19970;-84
2022/01/17 09:56:50;;;;;;;;;;;;;;;3.18;nan;102316.28;5033558;28;19943;-83
2022/01/17 09:59:16;;;;;;;;;;;;;;;3.27;nan;102304.63;5033298;28;20355;-82
2022/01/17 10:01:42;;;;;;;;;;;;;;;3.30;nan;102306.25;5032521;28;19961;-84
2022/01/17 10:04:08;;;;;;;;;;;;;;;3.35;nan;102320.84;5031736;28;19917;-83
2022/01/17 10:06:35;;;;;;;;;;;;;;;3.37;nan;102303.31;5048067;28;20417;-83
2022/01/17 10:09:10;;;;;;;;;;;;;;;3.44;nan;102303.94;5026941;28;20013;-84
2022/01/17 10:11:36;;;;;;;;;;;;;;;3.46;nan;102309.13;5012588;28;20207;-83
2022/01/17 10:14:01;;;;;;;;;;;;;;;3.45;nan;102316.09;5012972;28;19918;-85
2022/01/17 10:16:29;;;;;;;;;;;;;;;3.51;nan;102305.38;5012963;28;19979;-84
2022/01/17 10:18:56;;;;;;;;;;;;;;;3.49;nan;102307.22;5017477;28;19951;-84
2022/01/17 10:21:29;;;;;;;;;;;;;;;3.52;nan;102309.69;5013820;28;19922;-84
2022/01/17 10:37:08;;;;;;;;;;;;;;;3.88;nan;102296.00;5028540;28;19940;-85
2022/01/17 10:39:37;;;;;;;;;;;;;;;3.92;nan;102307.22;5031880;28;19921;-86
2022/01/17 10:42:26;;;;;;;;;;;;;;;4.02;nan;102311.97;5056750;28;20048;-84
2022/01/17 10:44:51;;;;;;;;;;;;;;;3.97;nan;102319.16;5033015;28;19924;-85
2022/01/17 10:47:22;;;;;;;;;;;;;;;4.01;nan;102301.59;5042157;28;19922;-84
2022/01/17 10:49:52;;;;;;;;;;;;;;;4.17;nan;102301.75;5008814;28;19968;-85
2022/01/17 10:52:34;;;;;;;;;;;;;;;4.27;nan;102297.84;5025639;28;19940;-85
2022/01/17 10:55:02;;;;;;;;;;;;;;;4.29;nan;102298.63;5013797;28;19925;-85
2022/01/17 10:57:32;;;;;;;;;;;;;;;4.30;nan;102316.03;5027021;28;19917;-84
2022/01/17 10:59:57;;;;;;;;;;;;;;;4.32;nan;102323.81;5029358;28;19947;-84
2022/01/17 11:02:24;;;;;;;;;;;;;;;4.39;nan;102323.47;5045651;28;19964;-85
2022/01/17 11:04:49;;;;;;;;;;;;;;;4.38;nan;102306.06;5019032;28;19921;-84
2022/01/17 11:07:14;;;;;;;;;;;;;;;4.36;nan;102299.19;5033451;28;20020;-84
2022/01/17 11:09:41;;;;;;;;;;;;;;;4.37;nan;102288.66;5007392;28;19968;-85
2022/01/17 11:12:10;;;;;;;;;;;;;;;4.43;nan;102291.00;5015520;28;19925;-84
2022/01/17 11:14:36;;;;;;;;;;;;;;;4.54;nan;102297.53;5019293;28;20434;-84
2022/01/17 11:17:09;;;;;;;;;;;;;;;4.51;nan;102297.66;5017533;28;19928;-83
2022/01/17 11:20:19;;;;;;;;;;;;;;;4.52;nan;102296.75;5024874;28;20383;-83
2022/01/17 11:22:20;;;;;;;;;;;;;;;4.50;nan;102278.47;5016208;28;19949;-85
2022/01/17 11:24:46;;;;;;;;;;;;;;;4.45;nan;102277.81;5008091;28;19929;-84
2022/01/17 11:27:11;;;;;;;;;;;;;;;4.25;nan;102269.09;5017602;28;19956;-84
2022/01/17 11:29:37;;;;;;;;;;;;;;;4.36;nan;102288.69;5039780;28;19917;-84
2022/01/17 11:32:02;;;;;;;;;;;;;;;4.41;nan;102292.84;5031122;28;19917;-85
2022/01/17 11:34:29;;;;;;;;;;;;;;;4.41;nan;102299.81;5007846;28;19932;-84
2022/01/17 11:36:54;;;;;;;;;;;;;;;4.22;nan;102295.41;5020897;28;19967;-84
2022/01/17 11:39:19;;;;;;;;;;;;;;;4.40;nan;102280.66;5022677;28;19951;-85
2022/01/17 11:41:48;;;;;;;;;;;;;;;4.45;nan;102281.28;5040548;28;19921;-85
2022/01/17 11:44:13;;;;;;;;;;;;;;;4.40;nan;102283.25;5023158;28;19917;-83
2022/01/17 11:46:51;;;;;;;;;;;;;;;4.52;nan;102265.31;5044366;28;19927;-84
2022/01/17 11:49:26;;;;;;;;;;;;;;;4.28;nan;102247.16;5013536;28;19945;-83
2022/01/17 11:51:52;;;;;;;;;;;;;;;4.45;nan;102244.59;5035918;28;19921;-83
2022/01/17 11:54:21;;;;;;;;;;;;;;;4.46;nan;102248.94;5051360;28;19928;-84
2022/01/17 11:56:49;;;;;;;;;;;;;;;4.53;nan;102231.19;5042300;28;19922;-85
2022/01/17 11:59:34;;;;;;;;;;;;;;;4.45;nan;102228.91;4999981;28;19928;-84
2022/01/17 12:02:18;;;;;;;;;;;;;;;4.58;nan;102212.63;4999007;28;20000;-85
2022/01/17 12:05:02;;;;;;;;;;;;;;;4.52;nan;102195.41;5050994;28;19921;-85
2022/01/17 12:07:35;;;;;;;;;;;;;;;4.54;nan;102205.84;5034653;28;20199;-86
2022/01/17 12:10:07;;;;;;;;;;;;;;;4.66;nan;102213.13;5035906;28;19928;-82
2022/01/17 12:12:32;;;;;;;;;;;;;;;4.69;nan;102231.31;5035700;28;20237;-84
2022/01/17 12:14:58;;;;;;;;;;;;;;;4.71;nan;102246.97;5035745;28;19936;-85
2022/01/17 12:17:23;;;;;;;;;;;;;;;4.82;nan;102237.69;5036120;28;19944;-83
2022/01/17 12:20:09;;;;;;;;;;;;;;;4.85;nan;102255.03;5034841;28;19917;-83
2022/01/17 12:22:43;;;;;;;;;;;;;;;4.90;nan;102245.19;5032771;28;19953;-85
2022/01/17 12:25:21;;;;;;;;;;;;;;;4.84;nan;102256.81;5033294;28;19979;-86
2022/01/17 12:27:46;;;;;;;;;;;;;;;5.00;nan;102258.69;5032239;28;20007;-85
2022/01/17 12:30:12;;;;;;;;;;;;;;;4.94;nan;102251.97;5033720;28;19975;-84
2022/01/17 12:32:39;;;;;;;;;;;;;;;4.79;nan;102229.09;5036311;28;20379;-84
2022/01/17 12:35:04;;;;;;;;;;;;;;;4.77;nan;102229.19;5033724;28;19925;-84
2022/01/17 12:37:31;;;;;;;;;;;;;;;4.88;nan;102240.00;5017537;28;19968;-84
2022/01/17 12:40:12;;;;;;;;;;;;;;;4.85;nan;102242.78;5034256;28;19917;-85
2022/01/17 12:42:54;;;;;;;;;;;;;;;4.86;nan;102214.78;5033490;28;19992;-86
2022/01/17 12:45:25;;;;;;;;;;;;;;;4.92;nan;102214.50;5034242;28;19921;-85
2022/01/17 12:47:51;;;;;;;;;;;;;;;4.81;nan;102219.41;5034201;28;20283;-86
2022/01/17 12:50:17;;;;;;;;;;;;;;;4.93;nan;102212.72;5029509;28;19968;-85
2022/01/17 12:52:42;;;;;;;;;;;;;;;5.04;nan;102224.41;5034081;28;19971;-85
2022/01/17 12:55:08;;;;;;;;;;;;;;;4.95;nan;102216.13;5033497;28;19956;-86
2022/01/17 12:57:43;;;;;;;;;;;;;;;4.97;nan;102217.75;5033805;28;20353;-85
2022/01/17 13:00:09;;;;;;;;;;;;;;;5.04;nan;102213.06;5038467;28;19917;-85
2022/01/17 13:02:44;;;;;;;;;;;;;;;4.89;nan;102210.25;5041146;28;20371;-85
2022/01/17 13:05:10;;;;;;;;;;;;;;;4.94;nan;102240.66;5035848;28;19921;-85
2022/01/17 13:07:38;;;;;;;;;;;;;;;4.85;nan;102239.31;5040221;28;19996;-85
2022/01/17 13:10:03;;;;;;;;;;;;;;;4.70;nan;102226.94;5041579;28;19921;-85
2022/01/17 13:12:28;;;;;;;;;;;;;;;4.67;nan;102220.03;5041363;28;19939;-85
2022/01/17 13:14:57;;;;;;;;;;;;;;;4.48;nan;102217.44;5039837;28;20090;-85
2022/01/17 13:17:22;;;;;;;;;;;;;;;4.49;nan;102221.75;5036511;28;19921;-85
2022/01/17 13:19:50;;;;;;;;;;;;;;;4.45;nan;102210.56;5041857;28;19916;-85
2022/01/17 13:22:16;;;;;;;;;;;;;;;4.47;nan;102224.44;5035879;28;20346;-85
2022/01/17 13:24:42;;;;;;;;;;;;;;;4.42;nan;102221.19;5034043;28;19919;-86
2022/01/17 13:27:10;;;;;;;;;;;;;;;4.38;nan;102222.25;5034080;28;19996;-85
2022/01/17 13:29:40;;;;;;;;;;;;;;;4.32;nan;102222.53;5033929;28;19917;-85
2022/01/17 13:32:06;;;;;;;;;;;;;;;4.34;nan;102223.31;5033796;28;20372;-85
2022/01/17 13:34:31;;;;;;;;;;;;;;;4.39;nan;102231.81;5032775;28;19941;-85
2022/01/17 13:37:01;;;;;;;;;;;;;;;4.34;nan;102238.16;5033724;28;19956;-85
2022/01/17 13:39:26;;;;;;;;;;;;;;;4.34;nan;102231.19;5032315;28;19932;-86
2022/01/17 13:41:53;;;;;;;;;;;;;;;4.38;nan;102218.78;5034126;28;20383;-85